createdAt,value
2023-10-23T00:01:25.360Z,78.80
2023-10-23T00:03:52.413Z,78.90
2023-10-23T00:06:19.567Z,78.90
2023-10-23T00:08:46.489Z,78.80
2023-10-23T00:11:29.349Z,78.80
2023-10-23T00:13:57.090Z,78.80
2023-10-23T00:16:24.242Z,78.70
2023-10-23T00:18:52.588Z,78.60
2023-10-23T00:21:19.859Z,78.50
2023-10-23T00:23:46.750Z,78.40
2023-10-23T00:26:13.647Z,78.30
2023-10-23T00:28:45.432Z,78.20
2023-10-23T00:31:12.280Z,78.20
2023-10-23T00:33:39.318Z,78.20
2023-10-23T00:36:06.311Z,78.30
2023-10-23T00:38:33.266Z,78.30
2023-10-23T00:41:00.164Z,78.40
2023-10-23T00:43:28.040Z,78.40
2023-10-23T00:45:57.340Z,78.40
2023-10-23T00:48:25.763Z,78.50
2023-10-23T00:50:59.619Z,78.50
2023-10-23T00:53:29.252Z,78.40
2023-10-23T00:55:58.045Z,78.40
2023-10-23T00:58:26.475Z,78.30
2023-10-23T01:00:55.415Z,78.30
2023-10-23T01:03:22.855Z,78.20
2023-10-23T01:05:50.137Z,78.20
2023-10-23T01:08:17.365Z,78.20
2023-10-23T01:10:44.331Z,78.10
2023-10-23T01:13:11.739Z,78.10
2023-10-23T01:15:38.741Z,78.20
2023-10-23T01:18:06.309Z,78.20
2023-10-23T01:20:33.732Z,78.20
2023-10-23T01:23:02.779Z,78.30
2023-10-23T01:25:29.873Z,78.30
2023-10-23T01:28:04.908Z,78.40
2023-10-23T01:30:32.368Z,78.50
2023-10-23T01:32:59.432Z,78.60
2023-10-23T01:35:26.499Z,78.90
2023-10-23T01:37:53.434Z,79.30
2023-10-23T01:40:20.529Z,79.60
2023-10-23T01:42:48.040Z,79.80
2023-10-23T01:45:15.112Z,80.00
2023-10-23T01:47:42.114Z,80.10
2023-10-23T01:50:09.360Z,80.20
2023-10-23T01:52:36.292Z,80.20
2023-10-23T01:55:03.371Z,80.20
2023-10-23T01:57:30.663Z,80.20
2023-10-23T02:00:05.207Z,80.20
2023-10-23T02:02:42.320Z,80.30
2023-10-23T02:05:09.428Z,80.20
2023-10-23T02:07:36.257Z,80.20
2023-10-23T02:10:03.198Z,80.10
2023-10-23T02:12:30.072Z,80.10
2023-10-23T02:14:57.516Z,80.10
2023-10-23T02:17:25.037Z,80.20
2023-10-23T02:19:51.970Z,80.20
2023-10-23T02:22:19.874Z,80.20
2023-10-23T02:24:47.440Z,80.10
2023-10-23T02:27:14.634Z,79.90
2023-10-23T02:29:42.106Z,79.70
2023-10-23T02:32:09.780Z,79.60
2023-10-23T02:34:38.060Z,79.60
2023-10-23T02:37:05.723Z,79.50
2023-10-23T02:39:33.043Z,79.50
2023-10-23T02:42:00.907Z,79.40
2023-10-23T02:44:28.032Z,79.30
2023-10-23T02:46:54.948Z,79.30
2023-10-23T02:49:22.052Z,79.30
2023-10-23T02:51:49.591Z,79.30
2023-10-23T02:54:17.320Z,79.30
2023-10-23T02:56:44.270Z,79.40
2023-10-23T02:59:12.330Z,79.50
2023-10-23T03:01:39.393Z,79.50
2023-10-23T03:04:06.719Z,79.50
2023-10-23T03:06:34.566Z,79.50
2023-10-23T03:09:01.366Z,79.50
2023-10-23T03:11:28.337Z,79.60
2023-10-23T03:13:55.263Z,79.60
2023-10-23T03:16:22.468Z,79.60
2023-10-23T03:18:49.432Z,79.60
2023-10-23T03:21:16.364Z,79.60
2023-10-23T03:23:43.277Z,79.60
2023-10-23T03:26:10.136Z,79.70
2023-10-23T03:28:36.975Z,79.70
2023-10-23T03:31:04.614Z,79.80
2023-10-23T03:33:31.836Z,80.00
2023-10-23T03:35:59.036Z,80.40
2023-10-23T03:38:26.006Z,80.90
2023-10-23T03:41:00.269Z,81.30
2023-10-23T03:43:27.359Z,82.00
2023-10-23T03:45:55.012Z,82.20
2023-10-23T03:48:22.175Z,82.20
2023-10-23T03:50:49.635Z,82.40
2023-10-23T03:53:16.512Z,82.50
2023-10-23T03:55:43.330Z,82.50
2023-10-23T03:58:10.136Z,82.50
2023-10-23T04:00:37.093Z,82.60
2023-10-23T04:03:04.144Z,82.60
2023-10-23T04:05:31.940Z,82.60
2023-10-23T04:07:59.583Z,82.60
2023-10-23T04:10:26.626Z,82.60
2023-10-23T04:12:53.625Z,82.70
2023-10-23T04:15:20.595Z,82.80
2023-10-23T04:17:47.555Z,83.20
2023-10-23T04:20:14.417Z,83.20
2023-10-23T04:22:41.261Z,83.30
2023-10-23T04:25:08.560Z,83.30
2023-10-23T04:27:35.544Z,83.30
2023-10-23T04:30:05.233Z,83.30
2023-10-23T04:32:32.221Z,83.30
2023-10-23T04:34:59.293Z,83.30
2023-10-23T04:37:26.377Z,83.40
2023-10-23T04:39:53.232Z,83.50
2023-10-23T04:42:20.132Z,83.60
2023-10-23T04:44:49.877Z,83.70
2023-10-23T04:47:16.801Z,83.70
2023-10-23T04:49:43.666Z,83.80
2023-10-23T04:52:10.522Z,84.10
2023-10-23T04:54:37.455Z,84.40
2023-10-23T04:57:04.621Z,84.60
2023-10-23T04:59:34.508Z,84.70
2023-10-23T05:02:01.279Z,84.90
2023-10-23T05:04:32.032Z,85.00
2023-10-23T05:06:59.190Z,85.10
2023-10-23T05:09:26.443Z,85.20
2023-10-23T05:11:53.318Z,85.30
2023-10-23T05:14:20.167Z,85.50
2023-10-23T05:16:47.645Z,85.60
2023-10-23T05:19:15.829Z,85.70
2023-10-23T05:21:42.648Z,85.80
2023-10-23T05:24:09.634Z,85.80
2023-10-23T05:26:36.645Z,85.80
2023-10-23T05:29:04.321Z,85.90
2023-10-23T05:31:31.485Z,86.10
2023-10-23T05:33:58.360Z,86.20
2023-10-23T05:36:25.540Z,86.20
2023-10-23T05:38:52.456Z,86.20
2023-10-23T05:41:19.311Z,86.30
2023-10-23T05:43:46.217Z,86.40
2023-10-23T05:46:13.115Z,86.40
2023-10-23T05:48:40.040Z,86.30
2023-10-23T05:51:07.192Z,86.40
2023-10-23T05:53:35.480Z,86.30
2023-10-23T05:56:06.350Z,86.20
2023-10-23T05:58:36.544Z,86.30
2023-10-23T06:01:13.904Z,86.30
2023-10-23T06:03:40.950Z,86.40
2023-10-23T06:06:08.242Z,86.30
2023-10-23T06:08:35.108Z,86.30
2023-10-23T06:11:03.000Z,86.30
2023-10-23T06:13:29.943Z,86.20
2023-10-23T06:16:04.207Z,86.10
2023-10-23T06:18:33.466Z,86.10
2023-10-23T06:21:04.489Z,86.00
2023-10-23T06:23:41.347Z,86.00
2023-10-23T06:26:09.247Z,86.10
2023-10-23T06:28:36.606Z,86.00
2023-10-23T06:31:07.757Z,86.10
2023-10-23T06:33:36.260Z,86.10
2023-10-23T06:36:05.059Z,86.10
2023-10-23T06:38:31.961Z,86.00
2023-10-23T06:41:06.187Z,86.00
2023-10-23T06:43:34.283Z,86.10
2023-10-23T06:46:02.712Z,86.20
2023-10-23T06:48:33.380Z,86.20
2023-10-23T06:51:01.117Z,86.30
2023-10-23T06:53:28.078Z,86.30
2023-10-23T06:55:56.291Z,86.10
2023-10-23T06:58:23.455Z,86.20
2023-10-23T07:00:50.605Z,86.30
2023-10-23T07:03:17.725Z,86.40
2023-10-23T07:05:44.921Z,86.40
2023-10-23T07:08:11.978Z,86.50
2023-10-23T07:10:41.915Z,86.60
2023-10-23T07:13:21.405Z,86.50
2023-10-23T07:15:51.419Z,86.60
2023-10-23T07:18:18.907Z,86.70
2023-10-23T07:20:57.474Z,86.90
2023-10-23T07:23:24.897Z,87.00
2023-10-23T07:26:09.246Z,87.10
2023-10-23T07:28:37.490Z,87.20
2023-10-23T07:31:05.103Z,87.10
2023-10-23T07:33:32.456Z,87.20
2023-10-23T07:36:05.820Z,87.20
2023-10-23T07:38:33.280Z,87.20
2023-10-23T07:41:00.215Z,87.20
2023-10-23T07:43:27.887Z,87.10
2023-10-23T07:46:00.652Z,87.10
2023-10-23T07:48:35.882Z,87.00
2023-10-23T07:51:04.934Z,87.10
2023-10-23T07:53:33.803Z,87.10
2023-10-23T07:56:00.962Z,87.20
2023-10-23T07:58:28.066Z,87.20
2023-10-23T08:01:08.572Z,87.30
2023-10-23T08:03:36.621Z,87.40
2023-10-23T08:06:10.033Z,87.40
2023-10-23T08:08:41.260Z,87.40
2023-10-23T08:11:09.923Z,87.40
2023-10-23T08:13:37.821Z,87.20
2023-10-23T08:16:05.471Z,87.20
2023-10-23T08:21:12.508Z,87.30
2023-10-23T08:23:40.401Z,87.40
2023-10-23T08:26:07.418Z,87.40
2023-10-23T08:28:53.889Z,87.30
2023-10-23T08:31:37.412Z,87.30
2023-10-23T08:34:06.315Z,87.60
2023-10-23T08:36:34.130Z,87.20
2023-10-23T08:39:01.400Z,87.10
2023-10-23T08:41:28.323Z,87.20
2023-10-23T08:43:56.442Z,87.20
2023-10-23T08:46:27.023Z,87.20
2023-10-23T08:48:54.473Z,87.00
2023-10-23T08:51:21.327Z,86.70
2023-10-23T08:54:09.425Z,86.80
2023-10-23T08:56:39.971Z,86.80
2023-10-23T08:59:09.364Z,86.60
2023-10-23T09:01:37.855Z,86.70
2023-10-23T09:04:06.772Z,86.50
2023-10-23T09:06:35.191Z,86.30
2023-10-23T09:09:04.070Z,86.30
2023-10-23T09:11:46.385Z,85.80
2023-10-23T09:14:25.994Z,85.70
2023-10-23T09:16:55.247Z,85.70
2023-10-23T09:19:40.097Z,85.70
2023-10-23T09:22:13.592Z,85.50
2023-10-23T09:24:40.751Z,85.40
2023-10-23T09:27:07.793Z,85.60
2023-10-23T09:29:36.139Z,85.90
2023-10-23T09:32:04.191Z,86.10
2023-10-23T09:34:32.167Z,86.30
2023-10-23T09:36:59.039Z,86.40
2023-10-23T09:39:25.934Z,86.60
2023-10-23T09:41:55.912Z,86.10
2023-10-23T09:44:25.658Z,86.00
2023-10-23T09:46:54.931Z,86.00
2023-10-23T09:49:23.467Z,86.20
2023-10-23T09:51:52.334Z,86.20
2023-10-23T09:54:23.757Z,85.80
2023-10-23T09:56:52.958Z,85.60
2023-10-23T09:59:26.445Z,85.50
2023-10-23T10:01:58.512Z,85.40
2023-10-23T10:04:44.134Z,85.50
2023-10-23T10:07:31.083Z,85.80
2023-10-23T10:09:58.578Z,85.70
2023-10-23T10:12:28.147Z,85.80
2023-10-23T10:14:56.919Z,85.90
2023-10-23T10:17:24.229Z,85.90
2023-10-23T10:19:51.753Z,85.70
2023-10-23T10:22:29.514Z,85.20
2023-10-23T10:24:57.669Z,85.20
2023-10-23T10:27:26.224Z,85.20
2023-10-23T10:29:53.177Z,85.20
2023-10-23T10:32:24.120Z,85.10
2023-10-23T10:34:57.784Z,85.30
2023-10-23T10:37:31.618Z,85.30
2023-10-23T10:39:59.272Z,84.80
2023-10-23T10:42:30.763Z,84.70
2023-10-23T10:45:07.765Z,84.40
2023-10-23T10:47:47.738Z,84.30
2023-10-23T10:50:37.996Z,84.10
2023-10-23T10:53:07.125Z,83.60
2023-10-23T10:55:36.231Z,83.30
2023-10-23T10:58:04.841Z,83.80
2023-10-23T11:00:33.730Z,84.20
2023-10-23T11:03:01.213Z,84.20
2023-10-23T11:05:28.421Z,83.70
2023-10-23T11:07:55.574Z,83.10
2023-10-23T11:10:22.897Z,83.20
2023-10-23T11:12:51.462Z,83.20
2023-10-23T11:15:19.343Z,83.20
2023-10-23T11:17:46.561Z,82.40
2023-10-23T11:20:14.889Z,82.40
2023-10-23T11:22:43.528Z,82.30
2023-10-23T11:25:11.455Z,82.50
2023-10-23T11:27:38.894Z,82.60
2023-10-23T11:30:07.365Z,82.10
2023-10-23T11:32:35.478Z,82.30
2023-10-23T11:35:06.836Z,82.70
2023-10-23T11:37:37.505Z,82.40
2023-10-23T11:40:07.210Z,81.10
2023-10-23T11:42:55.383Z,80.10
2023-10-23T11:45:23.021Z,79.60
2023-10-23T11:47:52.918Z,78.90
2023-10-23T11:50:22.868Z,78.30
2023-10-23T11:52:50.521Z,77.70
2023-10-23T11:55:19.065Z,77.90
2023-10-23T11:57:48.158Z,77.30
2023-10-23T12:00:16.920Z,77.10
2023-10-23T12:02:45.703Z,76.80
2023-10-23T12:05:18.230Z,77.10
2023-10-23T12:07:48.539Z,76.80
2023-10-23T12:10:18.136Z,77.10
2023-10-23T12:12:46.132Z,77.20
2023-10-23T12:15:15.110Z,77.50
2023-10-23T12:17:42.972Z,77.10
2023-10-23T12:20:13.130Z,76.70
2023-10-23T12:22:47.550Z,76.30
2023-10-23T12:25:17.297Z,76.00
2023-10-23T12:27:44.517Z,75.80
2023-10-23T12:30:14.220Z,75.20
2023-10-23T12:33:17.999Z,74.10
2023-10-23T12:35:30.971Z,73.90
2023-10-23T12:37:57.991Z,73.10
2023-10-23T12:40:28.296Z,72.90
2023-10-23T12:42:57.784Z,73.20
2023-10-23T12:45:24.600Z,73.20
2023-10-23T12:47:51.583Z,72.40
2023-10-23T12:50:18.482Z,71.90
2023-10-23T12:52:47.599Z,70.90
2023-10-23T12:55:16.238Z,70.30
2023-10-23T12:57:43.391Z,70.20
2023-10-23T13:00:14.535Z,70.20
2023-10-23T13:02:41.648Z,70.30
2023-10-23T13:05:08.974Z,70.30
2023-10-23T13:07:36.971Z,69.70
2023-10-23T13:10:07.400Z,69.80
2023-10-23T13:12:35.695Z,69.60
2023-10-23T13:15:04.280Z,69.20
2023-10-23T13:17:31.498Z,68.40
2023-10-23T13:19:58.717Z,68.30
2023-10-23T13:22:47.265Z,68.10
2023-10-23T13:25:17.589Z,68.30
2023-10-23T13:27:44.713Z,68.30
2023-10-23T13:30:11.992Z,68.90
2023-10-23T13:32:40.000Z,69.30
2023-10-23T13:35:08.947Z,69.20
2023-10-23T13:37:36.261Z,69.20
2023-10-23T13:40:08.042Z,69.40
2023-10-23T13:42:38.707Z,69.70
2023-10-23T13:45:06.092Z,70.10
2023-10-23T13:47:33.462Z,70.30
2023-10-23T13:50:00.415Z,70.50
2023-10-23T13:52:28.141Z,70.70
2023-10-23T13:54:57.708Z,70.80
2023-10-23T13:57:26.020Z,71.10
2023-10-23T13:59:52.981Z,71.20
2023-10-23T14:02:19.927Z,71.30
2023-10-23T14:04:47.014Z,71.20
2023-10-23T14:07:14.209Z,71.40
2023-10-23T14:09:46.889Z,71.50
2023-10-23T14:12:15.749Z,71.40
2023-10-23T14:14:42.607Z,71.60
2023-10-23T14:17:09.629Z,71.50
2023-10-23T14:19:46.756Z,71.60
2023-10-23T14:22:15.758Z,71.90
2023-10-23T14:24:42.753Z,72.10
2023-10-23T14:27:10.408Z,72.20
2023-10-23T14:29:37.915Z,72.20
2023-10-23T14:32:05.562Z,72.10
2023-10-23T14:34:32.606Z,72.10
2023-10-23T14:36:59.980Z,72.20
2023-10-23T14:39:30.843Z,72.20
2023-10-23T14:41:57.955Z,72.40
2023-10-23T14:44:25.179Z,72.60
2023-10-23T14:46:52.636Z,72.90
2023-10-23T14:49:19.995Z,73.00
2023-10-23T14:51:47.100Z,73.20
2023-10-23T14:54:13.955Z,73.30
2023-10-23T14:56:40.819Z,73.20
2023-10-23T14:59:07.757Z,73.30
2023-10-23T15:01:34.697Z,73.10
2023-10-23T15:04:02.059Z,73.10
2023-10-23T15:06:29.141Z,73.20
2023-10-23T15:08:56.178Z,73.20
2023-10-23T15:11:26.076Z,73.20
2023-10-23T15:13:56.622Z,73.30
2023-10-23T15:16:23.536Z,73.30
2023-10-23T15:18:52.897Z,73.30
2023-10-23T15:21:20.336Z,73.40
2023-10-23T15:23:47.222Z,73.50
2023-10-23T15:26:14.175Z,73.70
2023-10-23T15:28:41.858Z,73.80
2023-10-23T15:31:09.404Z,74.00
2023-10-23T15:33:37.245Z,74.30
2023-10-23T15:36:06.228Z,74.50
2023-10-23T15:38:34.122Z,74.80
2023-10-23T15:41:12.177Z,74.90
2023-10-23T15:43:41.517Z,75.00
2023-10-23T15:46:16.340Z,75.10
2023-10-23T15:48:43.904Z,75.30
2023-10-23T15:51:11.678Z,75.40
2023-10-23T15:53:38.861Z,75.60
2023-10-23T15:56:05.724Z,75.80
2023-10-23T15:58:33.369Z,76.00
2023-10-23T16:01:02.297Z,76.10
2023-10-23T16:03:29.411Z,76.20
2023-10-23T16:06:00.790Z,76.40
2023-10-23T16:08:27.589Z,76.60
2023-10-23T16:10:54.601Z,76.80
2023-10-23T16:13:22.221Z,76.90
2023-10-23T16:15:49.618Z,77.10
2023-10-23T16:18:17.661Z,77.30
2023-10-23T16:20:44.806Z,77.40
2023-10-23T16:23:12.404Z,77.60
2023-10-23T16:25:43.608Z,77.70
2023-10-23T16:28:11.851Z,77.90
2023-10-23T16:30:39.998Z,78.00
2023-10-23T16:33:07.722Z,78.00
2023-10-23T16:35:35.697Z,78.10
2023-10-23T16:38:03.929Z,78.30
2023-10-23T16:40:33.817Z,78.50
2023-10-23T16:43:01.369Z,78.50
2023-10-23T16:45:29.386Z,78.60
2023-10-23T16:47:57.270Z,78.70
2023-10-23T16:50:25.531Z,78.80
2023-10-23T16:52:52.730Z,79.00
2023-10-23T16:55:19.919Z,79.20
2023-10-23T16:57:46.863Z,79.30
2023-10-23T17:00:16.933Z,79.20
2023-10-23T17:02:46.744Z,79.30
2023-10-23T17:05:14.069Z,79.40
2023-10-23T17:07:41.102Z,79.40
2023-10-23T17:10:08.602Z,79.40
2023-10-23T17:12:35.427Z,79.40
2023-10-23T17:15:03.739Z,79.50
2023-10-23T17:17:30.752Z,79.70
2023-10-23T17:19:58.401Z,79.70
2023-10-23T17:22:25.300Z,79.70
2023-10-23T17:24:52.226Z,79.80
2023-10-23T17:27:19.121Z,79.80
2023-10-23T17:29:46.014Z,79.80
2023-10-23T17:32:13.851Z,79.80
2023-10-23T17:34:40.969Z,79.90
2023-10-23T17:37:07.940Z,79.90
2023-10-23T17:39:34.845Z,80.00
2023-10-23T17:42:02.072Z,80.00
2023-10-23T17:44:30.558Z,80.10
2023-10-23T17:46:57.590Z,80.20
2023-10-23T17:49:24.568Z,80.10
2023-10-23T17:51:51.933Z,80.10
2023-10-23T17:54:18.907Z,80.10
2023-10-23T17:56:45.770Z,80.00
2023-10-23T17:59:12.910Z,80.00
2023-10-23T18:01:43.422Z,80.00
2023-10-23T18:04:11.991Z,80.00
2023-10-23T18:06:39.656Z,80.00
2023-10-23T18:09:06.890Z,79.90
2023-10-23T18:11:34.274Z,80.00
2023-10-23T18:14:01.358Z,80.10
2023-10-23T18:16:29.051Z,80.10
2023-10-23T18:18:56.445Z,80.20
2023-10-23T18:21:24.140Z,80.20
2023-10-23T18:23:52.520Z,80.30
2023-10-23T18:26:19.753Z,80.30
2023-10-23T18:28:46.929Z,80.30
2023-10-23T18:31:15.162Z,80.30
2023-10-23T18:33:42.163Z,80.40
2023-10-23T18:36:17.257Z,80.50
2023-10-23T18:38:46.085Z,80.60
2023-10-23T18:41:17.620Z,80.60
2023-10-23T18:43:46.354Z,80.70
2023-10-23T18:46:14.448Z,80.70
2023-10-23T18:48:42.193Z,80.70
2023-10-23T18:51:12.598Z,80.90
2023-10-23T18:53:41.267Z,80.90
2023-10-23T18:56:08.347Z,80.90
2023-10-23T18:58:35.259Z,80.90
2023-10-23T19:01:09.140Z,81.00
2023-10-23T19:03:38.486Z,81.10
2023-10-23T19:06:06.569Z,81.20
2023-10-23T19:08:33.445Z,81.20
2023-10-23T19:11:00.418Z,81.30
2023-10-23T19:13:27.340Z,81.40
2023-10-23T19:15:58.816Z,81.60
2023-10-23T19:18:30.161Z,81.60
2023-10-23T19:21:02.491Z,81.70
2023-10-23T19:23:30.133Z,81.80
2023-10-23T19:25:57.079Z,81.70
2023-10-23T19:28:24.008Z,81.80
2023-10-23T19:30:51.546Z,81.80
2023-10-23T19:33:18.769Z,81.90
2023-10-23T19:35:45.830Z,82.00
2023-10-23T19:38:13.339Z,82.10
2023-10-23T19:40:52.724Z,82.20
2023-10-23T19:43:26.049Z,82.20
2023-10-23T19:45:53.286Z,82.30
2023-10-23T19:48:20.558Z,82.30
2023-10-23T19:50:48.697Z,82.50
2023-10-23T19:53:16.701Z,82.50
2023-10-23T19:55:47.337Z,82.60
2023-10-23T19:58:16.857Z,82.70
2023-10-23T20:00:43.863Z,82.80
2023-10-23T20:03:11.248Z,82.80
2023-10-23T20:05:38.213Z,82.90
2023-10-23T20:08:05.695Z,82.80
2023-10-23T20:10:33.353Z,82.90
2023-10-23T20:13:00.689Z,83.00
2023-10-23T20:15:28.023Z,82.90
2023-10-23T20:17:58.128Z,83.00
2023-10-23T20:20:26.639Z,83.00
2023-10-23T20:22:53.646Z,83.10
2023-10-23T20:25:20.507Z,83.20
2023-10-23T20:27:47.471Z,83.30
2023-10-23T20:30:14.531Z,83.30
2023-10-23T20:32:41.992Z,83.40
2023-10-23T20:35:09.509Z,83.40
2023-10-23T20:37:36.749Z,83.50
2023-10-23T20:40:04.957Z,83.70
2023-10-23T20:42:33.845Z,83.80
2023-10-23T20:45:02.899Z,83.80
2023-10-23T20:47:30.121Z,83.90
2023-10-23T20:49:58.095Z,84.00
2023-10-23T20:52:25.356Z,84.00
2023-10-23T20:54:52.311Z,84.10
2023-10-23T20:57:19.154Z,84.20
2023-10-23T20:59:47.257Z,84.20
2023-10-23T21:02:15.003Z,84.40
2023-10-23T21:04:42.185Z,84.40
2023-10-23T21:07:10.403Z,84.50
2023-10-23T21:09:37.504Z,84.50
2023-10-23T21:12:04.879Z,84.60
2023-10-23T21:14:31.722Z,84.60
2023-10-23T21:16:58.677Z,84.70
2023-10-23T21:19:25.726Z,84.90
2023-10-23T21:21:52.649Z,85.00
2023-10-23T21:24:19.475Z,85.00
2023-10-23T21:26:46.268Z,85.20
2023-10-23T21:29:25.828Z,85.20
2023-10-23T21:31:53.798Z,85.20
2023-10-23T21:34:21.046Z,85.10
2023-10-23T21:36:48.510Z,85.20
2023-10-23T21:39:15.343Z,85.20
2023-10-23T21:41:42.465Z,85.30
2023-10-23T21:44:10.097Z,85.40
2023-10-23T21:46:37.196Z,85.30
2023-10-23T21:49:05.912Z,85.30
2023-10-23T21:51:33.465Z,85.40
2023-10-23T21:54:00.755Z,85.50
2023-10-23T21:56:38.324Z,85.50
2023-10-23T21:59:19.064Z,85.50
2023-10-23T22:01:47.081Z,85.60
2023-10-23T22:04:14.814Z,85.80
2023-10-23T22:06:41.958Z,85.80
2023-10-23T22:09:09.248Z,85.80
2023-10-23T22:11:36.460Z,85.80
2023-10-23T22:14:05.184Z,85.90
2023-10-23T22:16:32.427Z,86.00
2023-10-23T22:18:59.315Z,86.10
2023-10-23T22:21:26.166Z,86.20
2023-10-23T22:23:52.960Z,86.30
2023-10-23T22:26:19.840Z,86.40
2023-10-23T22:28:47.114Z,86.40
2023-10-23T22:31:14.523Z,86.60
2023-10-23T22:33:41.486Z,86.50
2023-10-23T22:36:08.491Z,86.50
2023-10-23T22:38:35.557Z,86.50
2023-10-23T22:41:05.088Z,86.50
2023-10-23T22:43:32.369Z,86.50
2023-10-23T22:46:03.640Z,86.60
2023-10-23T22:48:31.793Z,86.60
2023-10-23T22:50:59.163Z,86.60
2023-10-23T22:53:26.331Z,86.70
2023-10-23T22:55:56.594Z,86.70
2023-10-23T22:58:31.919Z,86.60
2023-10-23T23:00:59.811Z,86.70
2023-10-23T23:03:27.509Z,86.70
2023-10-23T23:06:01.108Z,86.80
2023-10-23T23:08:30.608Z,86.70
2023-10-23T23:10:57.861Z,86.70
2023-10-23T23:13:25.178Z,86.70
2023-10-23T23:15:53.229Z,86.80
2023-10-23T23:18:21.378Z,86.80
2023-10-23T23:20:50.940Z,86.70
2023-10-23T23:23:17.902Z,86.80
2023-10-23T23:25:45.026Z,86.90
2023-10-23T23:28:11.966Z,87.00
2023-10-23T23:30:38.884Z,87.00
2023-10-23T23:33:05.776Z,86.90
2023-10-23T23:35:33.061Z,87.00
2023-10-23T23:38:00.623Z,87.00
2023-10-23T23:40:27.507Z,87.10
2023-10-23T23:42:54.427Z,87.20
2023-10-23T23:45:21.346Z,87.30
2023-10-23T23:47:48.371Z,87.40
2023-10-23T23:50:15.221Z,87.50
2023-10-23T23:52:42.044Z,87.60
2023-10-23T23:55:09.195Z,87.70
2023-10-23T23:57:36.153Z,87.90
